sensor_id;sensor_type;location;lat;lon;timestamp;P1;durP1;ratioP1;P2;durP2;ratioP2
665;SDS011;315;48.738;9.126;2023-12-28T00:01:23;3.83;;;2.10;;
665;SDS011;315;48.738;9.126;2023-12-28T00:03:49;2.23;;;1.80;;
665;SDS011;315;48.738;9.126;2023-12-28T00:06:14;2.40;;;2.03;;
665;SDS011;315;48.738;9.126;2023-12-28T00:08:41;2.33;;;2.03;;
665;SDS011;315;48.738;9.126;2023-12-28T00:11:07;3.40;;;2.73;;
665;SDS011;315;48.738;9.126;2023-12-28T00:13:32;3.43;;;2.20;;
665;SDS011;315;48.738;9.126;2023-12-28T00:15:58;3.97;;;2.40;;
665;SDS011;315;48.738;9.126;2023-12-28T00:18:23;2.13;;;1.77;;
665;SDS011;315;48.738;9.126;2023-12-28T00:20:49;2.67;;;2.47;;
665;SDS011;315;48.738;9.126;2023-12-28T00:23:15;2.67;;;2.47;;
665;SDS011;315;48.738;9.126;2023-12-28T00:25:41;3.20;;;2.37;;
665;SDS011;315;48.738;9.126;2023-12-28T00:28:06;2.53;;;2.23;;
665;SDS011;315;48.738;9.126;2023-12-28T00:30:32;2.60;;;2.40;;
665;SDS011;315;48.738;9.126;2023-12-28T00:32:58;2.50;;;2.30;;
665;SDS011;315;48.738;9.126;2023-12-28T00:35:23;4.90;;;3.07;;
665;SDS011;315;48.738;9.126;2023-12-28T00:37:49;4.60;;;2.50;;
665;SDS011;315;48.738;9.126;2023-12-28T00:40:15;2.40;;;2.20;;
665;SDS011;315;48.738;9.126;2023-12-28T00:42:40;3.87;;;2.67;;
665;SDS011;315;48.738;9.126;2023-12-28T00:45:06;3.20;;;2.90;;
665;SDS011;315;48.738;9.126;2023-12-28T00:47:33;5.63;;;2.00;;
665;SDS011;315;48.738;9.126;2023-12-28T00:49:58;2.40;;;2.20;;
665;SDS011;315;48.738;9.126;2023-12-28T00:52:24;3.10;;;1.90;;
665;SDS011;315;48.738;9.126;2023-12-28T00:54:49;2.10;;;1.90;;
665;SDS011;315;48.738;9.126;2023-12-28T00:57:15;3.63;;;2.70;;
665;SDS011;315;48.738;9.126;2023-12-28T00:59:40;3.20;;;2.80;;
665;SDS011;315;48.738;9.126;2023-12-28T01:02:07;3.00;;;2.40;;
665;SDS011;315;48.738;9.126;2023-12-28T01:04:32;3.43;;;2.53;;
665;SDS011;315;48.738;9.126;2023-12-28T01:06:58;3.60;;;2.50;;
665;SDS011;315;48.738;9.126;2023-12-28T01:09:26;2.40;;;2.20;;
665;SDS011;315;48.738;9.126;2023-12-28T01:11:52;2.60;;;2.40;;
665;SDS011;315;48.738;9.126;2023-12-28T01:14:18;3.70;;;2.33;;
665;SDS011;315;48.738;9.126;2023-12-28T01:16:43;3.03;;;2.73;;
665;SDS011;315;48.738;9.126;2023-12-28T01:19:09;3.20;;;2.80;;
665;SDS011;315;48.738;9.126;2023-12-28T01:21:34;3.47;;;2.90;;
665;SDS011;315;48.738;9.126;2023-12-28T01:24:00;2.57;;;2.37;;
665;SDS011;315;48.738;9.126;2023-12-28T01:26:25;3.13;;;2.73;;
665;SDS011;315;48.738;9.126;2023-12-28T01:28:51;2.70;;;2.50;;
665;SDS011;315;48.738;9.126;2023-12-28T01:31:16;5.27;;;2.77;;
665;SDS011;315;48.738;9.126;2023-12-28T01:33:42;2.50;;;2.27;;
665;SDS011;315;48.738;9.126;2023-12-28T01:36:17;2.57;;;2.20;;
665;SDS011;315;48.738;9.126;2023-12-28T01:38:43;2.83;;;2.63;;
665;SDS011;315;48.738;9.126;2023-12-28T01:41:09;2.47;;;2.27;;
665;SDS011;315;48.738;9.126;2023-12-28T01:43:34;5.43;;;2.60;;
665;SDS011;315;48.738;9.126;2023-12-28T01:46:00;2.77;;;2.47;;
665;SDS011;315;48.738;9.126;2023-12-28T01:48:26;2.83;;;2.40;;
665;SDS011;315;48.738;9.126;2023-12-28T01:50:52;3.00;;;2.23;;
665;SDS011;315;48.738;9.126;2023-12-28T01:53:18;2.70;;;2.50;;
665;SDS011;315;48.738;9.126;2023-12-28T01:55:43;2.77;;;2.50;;
665;SDS011;315;48.738;9.126;2023-12-28T01:58:09;2.67;;;2.13;;
665;SDS011;315;48.738;9.126;2023-12-28T02:00:35;3.13;;;2.50;;
665;SDS011;315;48.738;9.126;2023-12-28T02:03:03;3.10;;;2.07;;
665;SDS011;315;48.738;9.126;2023-12-28T02:05:31;2.90;;;2.60;;
665;SDS011;315;48.738;9.126;2023-12-28T02:07:57;2.43;;;2.23;;
665;SDS011;315;48.738;9.126;2023-12-28T02:10:22;3.07;;;2.87;;
665;SDS011;315;48.738;9.126;2023-12-28T02:12:48;3.00;;;2.37;;
665;SDS011;315;48.738;9.126;2023-12-28T02:15:14;2.40;;;2.13;;
665;SDS011;315;48.738;9.126;2023-12-28T02:17:47;2.73;;;2.50;;
665;SDS011;315;48.738;9.126;2023-12-28T02:20:20;3.80;;;2.33;;
665;SDS011;315;48.738;9.126;2023-12-28T02:22:47;5.00;;;2.80;;
665;SDS011;315;48.738;9.126;2023-12-28T02:25:13;3.10;;;2.63;;
665;SDS011;315;48.738;9.126;2023-12-28T02:27:43;2.83;;;2.53;;
665;SDS011;315;48.738;9.126;2023-12-28T02:30:11;3.40;;;2.10;;
665;SDS011;315;48.738;9.126;2023-12-28T02:38:09;3.07;;;2.50;;
665;SDS011;315;48.738;9.126;2023-12-28T02:40:37;2.50;;;2.30;;
665;SDS011;315;48.738;9.126;2023-12-28T02:43:06;1.80;;;1.70;;
665;SDS011;315;48.738;9.126;2023-12-28T02:45:33;3.00;;;2.80;;
665;SDS011;315;48.738;9.126;2023-12-28T02:47:59;2.67;;;2.43;;
665;SDS011;315;48.738;9.126;2023-12-28T02:50:25;4.70;;;2.90;;
665;SDS011;315;48.738;9.126;2023-12-28T02:52:50;5.20;;;2.50;;
665;SDS011;315;48.738;9.126;2023-12-28T02:55:16;2.17;;;1.97;;
665;SDS011;315;48.738;9.126;2023-12-28T02:57:42;3.40;;;2.33;;
665;SDS011;315;48.738;9.126;2023-12-28T03:00:09;2.80;;;2.60;;
665;SDS011;315;48.738;9.126;2023-12-28T03:02:35;2.80;;;2.60;;
665;SDS011;315;48.738;9.126;2023-12-28T03:05:02;3.50;;;2.53;;
665;SDS011;315;48.738;9.126;2023-12-28T03:07:28;2.40;;;1.93;;
665;SDS011;315;48.738;9.126;2023-12-28T03:09:54;3.50;;;2.50;;
665;SDS011;315;48.738;9.126;2023-12-28T03:12:20;1.93;;;1.80;;
665;SDS011;315;48.738;9.126;2023-12-28T03:14:45;3.37;;;2.30;;
665;SDS011;315;48.738;9.126;2023-12-28T03:17:10;4.13;;;2.40;;
665;SDS011;315;48.738;9.126;2023-12-28T03:19:37;2.57;;;2.20;;
665;SDS011;315;48.738;9.126;2023-12-28T03:22:02;3.03;;;2.20;;
665;SDS011;315;48.738;9.126;2023-12-28T03:24:28;2.00;;;1.80;;
665;SDS011;315;48.738;9.126;2023-12-28T03:26:54;2.50;;;2.30;;
665;SDS011;315;48.738;9.126;2023-12-28T03:29:19;2.33;;;2.10;;
665;SDS011;315;48.738;9.126;2023-12-28T03:31:45;2.20;;;1.87;;
665;SDS011;315;48.738;9.126;2023-12-28T03:34:11;3.40;;;2.60;;
665;SDS011;315;48.738;9.126;2023-12-28T03:36:36;2.67;;;1.90;;
665;SDS011;315;48.738;9.126;2023-12-28T03:39:02;2.33;;;2.10;;
665;SDS011;315;48.738;9.126;2023-12-28T03:41:28;2.03;;;1.83;;
665;SDS011;315;48.738;9.126;2023-12-28T03:43:54;3.00;;;2.03;;
665;SDS011;315;48.738;9.126;2023-12-28T03:46:20;2.30;;;2.10;;
665;SDS011;315;48.738;9.126;2023-12-28T03:48:45;2.37;;;2.17;;
665;SDS011;315;48.738;9.126;2023-12-28T03:51:15;3.63;;;2.13;;
665;SDS011;315;48.738;9.126;2023-12-28T03:53:41;4.63;;;2.20;;
665;SDS011;315;48.738;9.126;2023-12-28T03:56:19;3.50;;;2.07;;
665;SDS011;315;48.738;9.126;2023-12-28T03:58:49;2.57;;;2.37;;
665;SDS011;315;48.738;9.126;2023-12-28T04:01:21;2.93;;;2.30;;
665;SDS011;315;48.738;9.126;2023-12-28T04:03:47;2.80;;;2.20;;
665;SDS011;315;48.738;9.126;2023-12-28T04:06:13;4.27;;;2.33;;
665;SDS011;315;48.738;9.126;2023-12-28T04:08:40;1.67;;;1.57;;
665;SDS011;315;48.738;9.126;2023-12-28T04:11:06;1.80;;;1.70;;
665;SDS011;315;48.738;9.126;2023-12-28T04:13:31;2.60;;;2.10;;
665;SDS011;315;48.738;9.126;2023-12-28T04:15:57;2.83;;;2.10;;
665;SDS011;315;48.738;9.126;2023-12-28T04:18:22;2.00;;;1.90;;
665;SDS011;315;48.738;9.126;2023-12-28T04:20:48;1.67;;;1.57;;
665;SDS011;315;48.738;9.126;2023-12-28T04:23:14;2.20;;;1.80;;
665;SDS011;315;48.738;9.126;2023-12-28T04:25:39;3.50;;;2.00;;
665;SDS011;315;48.738;9.126;2023-12-28T04:28:05;2.40;;;2.20;;
665;SDS011;315;48.738;9.126;2023-12-28T04:30:31;3.07;;;2.77;;
665;SDS011;315;48.738;9.126;2023-12-28T04:32:57;3.40;;;2.10;;
665;SDS011;315;48.738;9.126;2023-12-28T04:35:22;2.97;;;2.27;;
665;SDS011;315;48.738;9.126;2023-12-28T04:37:48;2.77;;;2.10;;
665;SDS011;315;48.738;9.126;2023-12-28T04:40:13;2.93;;;2.10;;
665;SDS011;315;48.738;9.126;2023-12-28T04:42:42;2.40;;;1.87;;
665;SDS011;315;48.738;9.126;2023-12-28T04:45:08;2.17;;;1.97;;
665;SDS011;315;48.738;9.126;2023-12-28T04:47:35;2.93;;;2.00;;
665;SDS011;315;48.738;9.126;2023-12-28T04:50:00;2.60;;;1.97;;
665;SDS011;315;48.738;9.126;2023-12-28T04:52:27;2.20;;;1.43;;
665;SDS011;315;48.738;9.126;2023-12-28T04:54:53;4.23;;;2.43;;
665;SDS011;315;48.738;9.126;2023-12-28T04:57:19;2.27;;;2.07;;
665;SDS011;315;48.738;9.126;2023-12-28T04:59:44;2.30;;;1.83;;
665;SDS011;315;48.738;9.126;2023-12-28T05:02:10;2.23;;;2.03;;
665;SDS011;315;48.738;9.126;2023-12-28T05:04:38;2.70;;;2.17;;
665;SDS011;315;48.738;9.126;2023-12-28T05:07:04;1.80;;;1.70;;
665;SDS011;315;48.738;9.126;2023-12-28T05:09:30;2.70;;;1.90;;
665;SDS011;315;48.738;9.126;2023-12-28T05:11:56;1.73;;;1.63;;
665;SDS011;315;48.738;9.126;2023-12-28T05:14:21;2.93;;;1.87;;
665;SDS011;315;48.738;9.126;2023-12-28T05:16:47;2.30;;;2.10;;
665;SDS011;315;48.738;9.126;2023-12-28T05:19:13;4.23;;;2.50;;
665;SDS011;315;48.738;9.126;2023-12-28T05:21:38;2.50;;;2.30;;
665;SDS011;315;48.738;9.126;2023-12-28T05:24:04;2.07;;;1.83;;
665;SDS011;315;48.738;9.126;2023-12-28T05:26:29;2.17;;;1.97;;
665;SDS011;315;48.738;9.126;2023-12-28T05:28:55;2.13;;;1.90;;
665;SDS011;315;48.738;9.126;2023-12-28T05:31:20;2.77;;;2.40;;
665;SDS011;315;48.738;9.126;2023-12-28T05:33:46;2.23;;;1.73;;
665;SDS011;315;48.738;9.126;2023-12-28T05:36:11;3.53;;;2.27;;
665;SDS011;315;48.738;9.126;2023-12-28T05:38:37;2.07;;;1.83;;
665;SDS011;315;48.738;9.126;2023-12-28T05:41:02;1.83;;;1.57;;
665;SDS011;315;48.738;9.126;2023-12-28T05:43:28;2.30;;;2.10;;
665;SDS011;315;48.738;9.126;2023-12-28T05:45:53;2.97;;;1.83;;
665;SDS011;315;48.738;9.126;2023-12-28T05:48:19;3.93;;;2.67;;
665;SDS011;315;48.738;9.126;2023-12-28T05:50:44;2.73;;;2.00;;
665;SDS011;315;48.738;9.126;2023-12-28T05:53:10;2.50;;;2.00;;
665;SDS011;315;48.738;9.126;2023-12-28T05:55:40;2.17;;;1.90;;
665;SDS011;315;48.738;9.126;2023-12-28T05:58:06;2.37;;;2.13;;
665;SDS011;315;48.738;9.126;2023-12-28T06:00:31;2.70;;;2.17;;
665;SDS011;315;48.738;9.126;2023-12-28T06:02:57;4.80;;;2.20;;
665;SDS011;315;48.738;9.126;2023-12-28T06:05:22;2.03;;;1.90;;
665;SDS011;315;48.738;9.126;2023-12-28T06:07:48;2.77;;;2.13;;
665;SDS011;315;48.738;9.126;2023-12-28T06:10:13;2.00;;;1.90;;
665;SDS011;315;48.738;9.126;2023-12-28T06:12:39;2.17;;;1.90;;
665;SDS011;315;48.738;9.126;2023-12-28T06:15:04;2.03;;;1.80;;
665;SDS011;315;48.738;9.126;2023-12-28T06:17:30;2.00;;;1.80;;
665;SDS011;315;48.738;9.126;2023-12-28T06:19:56;2.40;;;2.17;;
665;SDS011;315;48.738;9.126;2023-12-28T06:22:21;2.20;;;2.10;;
665;SDS011;315;48.738;9.126;2023-12-28T06:24:47;1.77;;;1.67;;
665;SDS011;315;48.738;9.126;2023-12-28T06:27:12;2.77;;;2.13;;
665;SDS011;315;48.738;9.126;2023-12-28T06:29:38;2.17;;;1.97;;
665;SDS011;315;48.738;9.126;2023-12-28T06:32:04;1.77;;;1.67;;
665;SDS011;315;48.738;9.126;2023-12-28T06:34:30;2.97;;;2.63;;
665;SDS011;315;48.738;9.126;2023-12-28T06:36:55;5.60;;;2.70;;
665;SDS011;315;48.738;9.126;2023-12-28T06:39:21;4.90;;;3.77;;
665;SDS011;315;48.738;9.126;2023-12-28T06:41:47;2.60;;;2.33;;
665;SDS011;315;48.738;9.126;2023-12-28T06:44:13;2.73;;;2.00;;
665;SDS011;315;48.738;9.126;2023-12-28T06:46:39;6.33;;;4.00;;
665;SDS011;315;48.738;9.126;2023-12-28T06:49:05;3.87;;;2.63;;
665;SDS011;315;48.738;9.126;2023-12-28T06:51:31;3.00;;;2.70;;
665;SDS011;315;48.738;9.126;2023-12-28T06:53:56;3.53;;;3.23;;
665;SDS011;315;48.738;9.126;2023-12-28T06:56:22;4.37;;;3.17;;
665;SDS011;315;48.738;9.126;2023-12-28T06:58:47;3.77;;;3.20;;
665;SDS011;315;48.738;9.126;2023-12-28T07:01:13;4.20;;;3.77;;
665;SDS011;315;48.738;9.126;2023-12-28T07:03:39;2.40;;;2.23;;
665;SDS011;315;48.738;9.126;2023-12-28T07:06:05;3.97;;;2.63;;
665;SDS011;315;48.738;9.126;2023-12-28T07:08:30;2.40;;;2.20;;
665;SDS011;315;48.738;9.126;2023-12-28T07:10:56;2.80;;;2.60;;
665;SDS011;315;48.738;9.126;2023-12-28T07:13:22;3.60;;;3.13;;
665;SDS011;315;48.738;9.126;2023-12-28T07:15:47;3.07;;;2.47;;
665;SDS011;315;48.738;9.126;2023-12-28T07:18:13;4.00;;;2.47;;
665;SDS011;315;48.738;9.126;2023-12-28T07:20:39;3.10;;;2.60;;
665;SDS011;315;48.738;9.126;2023-12-28T07:23:05;3.23;;;2.47;;
665;SDS011;315;48.738;9.126;2023-12-28T07:25:30;3.13;;;2.17;;
665;SDS011;315;48.738;9.126;2023-12-28T07:27:56;3.40;;;2.30;;
665;SDS011;315;48.738;9.126;2023-12-28T07:30:21;2.90;;;2.60;;
665;SDS011;315;48.738;9.126;2023-12-28T07:32:47;2.70;;;2.50;;
665;SDS011;315;48.738;9.126;2023-12-28T07:35:12;4.70;;;3.40;;
665;SDS011;315;48.738;9.126;2023-12-28T07:37:38;4.07;;;3.67;;
665;SDS011;315;48.738;9.126;2023-12-28T07:40:03;3.33;;;3.03;;
665;SDS011;315;48.738;9.126;2023-12-28T07:42:29;4.93;;;3.03;;
665;SDS011;315;48.738;9.126;2023-12-28T07:44:55;3.43;;;2.83;;
665;SDS011;315;48.738;9.126;2023-12-28T07:47:20;7.53;;;5.30;;
665;SDS011;315;48.738;9.126;2023-12-28T07:49:46;3.70;;;3.40;;
665;SDS011;315;48.738;9.126;2023-12-28T07:52:11;3.70;;;2.80;;
665;SDS011;315;48.738;9.126;2023-12-28T07:54:37;3.13;;;2.80;;
665;SDS011;315;48.738;9.126;2023-12-28T07:57:03;2.60;;;2.40;;
665;SDS011;315;48.738;9.126;2023-12-28T07:59:28;3.83;;;3.53;;
665;SDS011;315;48.738;9.126;2023-12-28T08:01:54;4.70;;;3.67;;
665;SDS011;315;48.738;9.126;2023-12-28T08:04:20;11.37;;;6.10;;
665;SDS011;315;48.738;9.126;2023-12-28T08:06:45;25.47;;;18.00;;
665;SDS011;315;48.738;9.126;2023-12-28T08:09:11;44.37;;;31.33;;
665;SDS011;315;48.738;9.126;2023-12-28T08:11:37;45.07;;;31.43;;
665;SDS011;315;48.738;9.126;2023-12-28T08:14:02;20.17;;;13.87;;
665;SDS011;315;48.738;9.126;2023-12-28T08:16:28;7.13;;;5.60;;
665;SDS011;315;48.738;9.126;2023-12-28T08:18:53;4.77;;;4.37;;
665;SDS011;315;48.738;9.126;2023-12-28T08:21:19;7.63;;;6.90;;
665;SDS011;315;48.738;9.126;2023-12-28T08:23:44;6.07;;;5.40;;
665;SDS011;315;48.738;9.126;2023-12-28T08:26:10;15.30;;;12.03;;
665;SDS011;315;48.738;9.126;2023-12-28T08:28:35;13.20;;;9.80;;
665;SDS011;315;48.738;9.126;2023-12-28T08:31:01;10.43;;;9.23;;
665;SDS011;315;48.738;9.126;2023-12-28T08:33:27;7.33;;;5.50;;
665;SDS011;315;48.738;9.126;2023-12-28T08:35:52;7.60;;;4.53;;
665;SDS011;315;48.738;9.126;2023-12-28T08:38:18;4.20;;;3.80;;
665;SDS011;315;48.738;9.126;2023-12-28T08:40:44;6.40;;;5.07;;
665;SDS011;315;48.738;9.126;2023-12-28T08:43:10;6.00;;;4.13;;
665;SDS011;315;48.738;9.126;2023-12-28T08:45:35;4.80;;;4.20;;
665;SDS011;315;48.738;9.126;2023-12-28T08:48:01;4.60;;;3.43;;
665;SDS011;315;48.738;9.126;2023-12-28T08:50:27;7.17;;;3.70;;
665;SDS011;315;48.738;9.126;2023-12-28T08:52:53;6.87;;;5.00;;
665;SDS011;315;48.738;9.126;2023-12-28T08:55:18;6.13;;;5.53;;
665;SDS011;315;48.738;9.126;2023-12-28T08:57:44;5.43;;;4.83;;
665;SDS011;315;48.738;9.126;2023-12-28T09:00:10;6.00;;;4.40;;
665;SDS011;315;48.738;9.126;2023-12-28T09:02:36;4.13;;;3.57;;
665;SDS011;315;48.738;9.126;2023-12-28T09:05:02;5.80;;;4.37;;
665;SDS011;315;48.738;9.126;2023-12-28T09:07:28;8.00;;;6.10;;
665;SDS011;315;48.738;9.126;2023-12-28T09:09:53;5.03;;;4.43;;
665;SDS011;315;48.738;9.126;2023-12-28T09:12:19;4.90;;;4.50;;
665;SDS011;315;48.738;9.126;2023-12-28T09:14:44;3.83;;;3.53;;
665;SDS011;315;48.738;9.126;2023-12-28T09:17:10;3.67;;;3.37;;
665;SDS011;315;48.738;9.126;2023-12-28T09:19:36;3.00;;;2.80;;
665;SDS011;315;48.738;9.126;2023-12-28T09:22:02;2.70;;;2.50;;
665;SDS011;315;48.738;9.126;2023-12-28T09:24:28;4.60;;;2.77;;
665;SDS011;315;48.738;9.126;2023-12-28T09:26:54;6.43;;;4.37;;
665;SDS011;315;48.738;9.126;2023-12-28T09:29:19;5.73;;;2.93;;
665;SDS011;315;48.738;9.126;2023-12-28T09:31:45;3.50;;;3.20;;
665;SDS011;315;48.738;9.126;2023-12-28T09:34:11;3.40;;;2.00;;
665;SDS011;315;48.738;9.126;2023-12-28T09:36:36;5.00;;;2.23;;
665;SDS011;315;48.738;9.126;2023-12-28T09:39:02;3.70;;;2.00;;
665;SDS011;315;48.738;9.126;2023-12-28T09:41:29;3.07;;;2.40;;
665;SDS011;315;48.738;9.126;2023-12-28T09:44:05;3.27;;;2.43;;
665;SDS011;315;48.738;9.126;2023-12-28T09:46:36;11.13;;;9.40;;
665;SDS011;315;48.738;9.126;2023-12-28T09:49:03;7.80;;;2.37;;
665;SDS011;315;48.738;9.126;2023-12-28T09:51:29;2.80;;;2.60;;
665;SDS011;315;48.738;9.126;2023-12-28T09:53:56;2.20;;;2.03;;
665;SDS011;315;48.738;9.126;2023-12-28T09:56:22;3.60;;;2.37;;
665;SDS011;315;48.738;9.126;2023-12-28T09:58:49;2.87;;;2.67;;
665;SDS011;315;48.738;9.126;2023-12-28T10:01:16;3.23;;;2.70;;
665;SDS011;315;48.738;9.126;2023-12-28T10:03:43;3.90;;;2.50;;
665;SDS011;315;48.738;9.126;2023-12-28T10:06:08;2.73;;;2.53;;
665;SDS011;315;48.738;9.126;2023-12-28T10:08:34;3.33;;;2.10;;
665;SDS011;315;48.738;9.126;2023-12-28T10:11:01;3.93;;;2.70;;
665;SDS011;315;48.738;9.126;2023-12-28T10:13:27;2.40;;;2.20;;
665;SDS011;315;48.738;9.126;2023-12-28T10:15:56;3.30;;;2.60;;
665;SDS011;315;48.738;9.126;2023-12-28T10:18:22;2.47;;;2.27;;
665;SDS011;315;48.738;9.126;2023-12-28T10:20:54;3.90;;;2.90;;
665;SDS011;315;48.738;9.126;2023-12-28T10:23:19;2.83;;;2.13;;
665;SDS011;315;48.738;9.126;2023-12-28T10:25:48;2.43;;;2.23;;
665;SDS011;315;48.738;9.126;2023-12-28T10:28:18;2.60;;;2.40;;
665;SDS011;315;48.738;9.126;2023-12-28T10:30:44;2.47;;;2.20;;
665;SDS011;315;48.738;9.126;2023-12-28T10:33:10;6.60;;;3.53;;
665;SDS011;315;48.738;9.126;2023-12-28T10:35:35;2.40;;;2.20;;
665;SDS011;315;48.738;9.126;2023-12-28T10:38:01;2.63;;;2.40;;
665;SDS011;315;48.738;9.126;2023-12-28T10:40:28;3.20;;;2.30;;
665;SDS011;315;48.738;9.126;2023-12-28T10:42:58;2.73;;;1.63;;
665;SDS011;315;48.738;9.126;2023-12-28T10:45:29;2.60;;;2.30;;
665;SDS011;315;48.738;9.126;2023-12-28T10:50:24;3.70;;;2.33;;
665;SDS011;315;48.738;9.126;2023-12-28T10:52:54;3.20;;;2.20;;
665;SDS011;315;48.738;9.126;2023-12-28T10:55:30;2.30;;;2.10;;
665;SDS011;315;48.738;9.126;2023-12-28T10:58:15;3.20;;;1.77;;
665;SDS011;315;48.738;9.126;2023-12-28T11:00:50;2.57;;;2.30;;
665;SDS011;315;48.738;9.126;2023-12-28T11:03:22;2.43;;;2.03;;
665;SDS011;315;48.738;9.126;2023-12-28T11:05:52;2.20;;;2.00;;
665;SDS011;315;48.738;9.126;2023-12-28T11:08:18;3.77;;;2.20;;
665;SDS011;315;48.738;9.126;2023-12-28T11:10:44;1.83;;;1.73;;
665;SDS011;315;48.738;9.126;2023-12-28T11:13:12;2.43;;;2.07;;
665;SDS011;315;48.738;9.126;2023-12-28T11:15:40;3.17;;;2.00;;
665;SDS011;315;48.738;9.126;2023-12-28T11:18:06;2.40;;;2.20;;
665;SDS011;315;48.738;9.126;2023-12-28T11:20:31;3.10;;;2.80;;
665;SDS011;315;48.738;9.126;2023-12-28T11:22:58;3.53;;;3.03;;
665;SDS011;315;48.738;9.126;2023-12-28T11:25:24;2.67;;;2.20;;
665;SDS011;315;48.738;9.126;2023-12-28T11:27:56;4.33;;;2.87;;
665;SDS011;315;48.738;9.126;2023-12-28T11:30:21;3.57;;;2.83;;
665;SDS011;315;48.738;9.126;2023-12-28T11:32:52;1.63;;;1.53;;
665;SDS011;315;48.738;9.126;2023-12-28T11:35:21;2.13;;;1.83;;
665;SDS011;315;48.738;9.126;2023-12-28T11:37:48;1.90;;;1.50;;
665;SDS011;315;48.738;9.126;2023-12-28T11:40:17;3.00;;;1.80;;
665;SDS011;315;48.738;9.126;2023-12-28T11:42:52;2.23;;;1.80;;
665;SDS011;315;48.738;9.126;2023-12-28T11:45:19;2.00;;;1.90;;
665;SDS011;315;48.738;9.126;2023-12-28T11:47:46;3.57;;;2.70;;
665;SDS011;315;48.738;9.126;2023-12-28T11:50:12;2.50;;;2.30;;
665;SDS011;315;48.738;9.126;2023-12-28T11:52:39;2.60;;;1.73;;
665;SDS011;315;48.738;9.126;2023-12-28T11:55:05;2.77;;;1.90;;
665;SDS011;315;48.738;9.126;2023-12-28T11:57:30;1.60;;;1.40;;
665;SDS011;315;48.738;9.126;2023-12-28T12:00:00;2.63;;;2.33;;
665;SDS011;315;48.738;9.126;2023-12-28T12:02:27;2.40;;;2.30;;
665;SDS011;315;48.738;9.126;2023-12-28T12:04:53;2.40;;;2.10;;
665;SDS011;315;48.738;9.126;2023-12-28T12:07:20;2.70;;;2.50;;
665;SDS011;315;48.738;9.126;2023-12-28T12:09:46;2.00;;;1.70;;
665;SDS011;315;48.738;9.126;2023-12-28T12:12:11;2.90;;;2.20;;
665;SDS011;315;48.738;9.126;2023-12-28T12:14:37;3.50;;;2.37;;
665;SDS011;315;48.738;9.126;2023-12-28T12:17:02;2.40;;;2.20;;
665;SDS011;315;48.738;9.126;2023-12-28T12:19:28;3.17;;;1.90;;
665;SDS011;315;48.738;9.126;2023-12-28T12:21:54;2.80;;;2.60;;
665;SDS011;315;48.738;9.126;2023-12-28T12:24:21;2.80;;;2.50;;
665;SDS011;315;48.738;9.126;2023-12-28T12:26:48;2.10;;;1.90;;
665;SDS011;315;48.738;9.126;2023-12-28T12:29:14;2.33;;;2.13;;
665;SDS011;315;48.738;9.126;2023-12-28T12:31:40;2.37;;;2.10;;
665;SDS011;315;48.738;9.126;2023-12-28T12:34:07;2.40;;;2.20;;
665;SDS011;315;48.738;9.126;2023-12-28T12:36:34;4.70;;;2.37;;
665;SDS011;315;48.738;9.126;2023-12-28T12:38:59;2.77;;;2.10;;
665;SDS011;315;48.738;9.126;2023-12-28T12:41:25;2.70;;;1.80;;
665;SDS011;315;48.738;9.126;2023-12-28T12:43:51;6.50;;;5.47;;
665;SDS011;315;48.738;9.126;2023-12-28T12:46:20;2.90;;;2.63;;
665;SDS011;315;48.738;9.126;2023-12-28T12:48:54;3.10;;;2.40;;
665;SDS011;315;48.738;9.126;2023-12-28T12:51:20;2.73;;;2.47;;
665;SDS011;315;48.738;9.126;2023-12-28T12:53:46;3.37;;;2.10;;
665;SDS011;315;48.738;9.126;2023-12-28T12:56:12;2.90;;;2.30;;
665;SDS011;315;48.738;9.126;2023-12-28T12:58:38;2.50;;;2.30;;
665;SDS011;315;48.738;9.126;2023-12-28T13:01:04;3.33;;;2.27;;
665;SDS011;315;48.738;9.126;2023-12-28T13:03:29;2.30;;;2.07;;
665;SDS011;315;48.738;9.126;2023-12-28T13:05:55;3.20;;;2.37;;
665;SDS011;315;48.738;9.126;2023-12-28T13:08:21;2.70;;;2.43;;
665;SDS011;315;48.738;9.126;2023-12-28T13:10:47;4.00;;;2.30;;
665;SDS011;315;48.738;9.126;2023-12-28T13:13:14;3.77;;;2.50;;
665;SDS011;315;48.738;9.126;2023-12-28T13:15:40;3.07;;;2.60;;
665;SDS011;315;48.738;9.126;2023-12-28T13:18:05;2.60;;;2.40;;
665;SDS011;315;48.738;9.126;2023-12-28T13:20:31;2.60;;;2.40;;
665;SDS011;315;48.738;9.126;2023-12-28T13:22:56;3.67;;;3.17;;
665;SDS011;315;48.738;9.126;2023-12-28T13:25:22;2.57;;;2.17;;
665;SDS011;315;48.738;9.126;2023-12-28T13:27:47;2.80;;;2.33;;
665;SDS011;315;48.738;9.126;2023-12-28T13:30:14;2.77;;;2.30;;
665;SDS011;315;48.738;9.126;2023-12-28T13:32:39;6.03;;;2.50;;
665;SDS011;315;48.738;9.126;2023-12-28T13:35:05;2.60;;;2.40;;
665;SDS011;315;48.738;9.126;2023-12-28T13:37:31;2.20;;;2.00;;
665;SDS011;315;48.738;9.126;2023-12-28T13:39:57;2.10;;;1.90;;
665;SDS011;315;48.738;9.126;2023-12-28T13:42:22;1.73;;;1.63;;
665;SDS011;315;48.738;9.126;2023-12-28T13:44:48;2.20;;;2.10;;
665;SDS011;315;48.738;9.126;2023-12-28T13:47:13;2.33;;;2.13;;
665;SDS011;315;48.738;9.126;2023-12-28T13:49:39;3.07;;;2.77;;
665;SDS011;315;48.738;9.126;2023-12-28T13:52:04;2.10;;;1.77;;
665;SDS011;315;48.738;9.126;2023-12-28T13:54:30;2.93;;;2.33;;
665;SDS011;315;48.738;9.126;2023-12-28T13:56:56;3.20;;;2.90;;
665;SDS011;315;48.738;9.126;2023-12-28T13:59:23;3.80;;;2.30;;
665;SDS011;315;48.738;9.126;2023-12-28T14:01:49;2.93;;;2.40;;
665;SDS011;315;48.738;9.126;2023-12-28T14:04:15;2.70;;;1.93;;
665;SDS011;315;48.738;9.126;2023-12-28T14:06:40;2.30;;;2.10;;
665;SDS011;315;48.738;9.126;2023-12-28T14:09:06;2.60;;;2.40;;
665;SDS011;315;48.738;9.126;2023-12-28T14:11:33;4.20;;;2.93;;
665;SDS011;315;48.738;9.126;2023-12-28T14:13:58;4.53;;;2.47;;
665;SDS011;315;48.738;9.126;2023-12-28T14:16:25;2.70;;;2.10;;
665;SDS011;315;48.738;9.126;2023-12-28T14:18:50;2.03;;;1.93;;
665;SDS011;315;48.738;9.126;2023-12-28T14:21:17;2.53;;;2.30;;
665;SDS011;315;48.738;9.126;2023-12-28T14:23:43;5.33;;;2.33;;
665;SDS011;315;48.738;9.126;2023-12-28T14:26:12;2.70;;;2.50;;
665;SDS011;315;48.738;9.126;2023-12-28T14:28:42;2.63;;;2.43;;
665;SDS011;315;48.738;9.126;2023-12-28T14:31:11;4.37;;;2.50;;
665;SDS011;315;48.738;9.126;2023-12-28T14:33:37;3.27;;;3.00;;
665;SDS011;315;48.738;9.126;2023-12-28T14:36:50;6.20;;;4.17;;
665;SDS011;315;48.738;9.126;2023-12-28T14:38:58;5.10;;;2.97;;
665;SDS011;315;48.738;9.126;2023-12-28T14:41:29;3.43;;;3.13;;
665;SDS011;315;48.738;9.126;2023-12-28T14:43:55;3.60;;;2.60;;
665;SDS011;315;48.738;9.126;2023-12-28T14:46:24;3.43;;;2.50;;
665;SDS011;315;48.738;9.126;2023-12-28T14:48:50;3.03;;;2.33;;
665;SDS011;315;48.738;9.126;2023-12-28T14:51:16;2.50;;;2.30;;
665;SDS011;315;48.738;9.126;2023-12-28T14:53:41;2.33;;;2.10;;
665;SDS011;315;48.738;9.126;2023-12-28T14:56:07;2.40;;;2.20;;
665;SDS011;315;48.738;9.126;2023-12-28T14:58:33;2.90;;;2.70;;
665;SDS011;315;48.738;9.126;2023-12-28T15:00:59;5.60;;;3.80;;
665;SDS011;315;48.738;9.126;2023-12-28T15:03:24;4.70;;;4.30;;
665;SDS011;315;48.738;9.126;2023-12-28T15:05:51;2.87;;;2.67;;
665;SDS011;315;48.738;9.126;2023-12-28T15:08:16;2.67;;;2.13;;
665;SDS011;315;48.738;9.126;2023-12-28T15:10:42;3.60;;;2.70;;
665;SDS011;315;48.738;9.126;2023-12-28T15:13:08;3.40;;;2.50;;
665;SDS011;315;48.738;9.126;2023-12-28T15:15:35;2.67;;;2.47;;
665;SDS011;315;48.738;9.126;2023-12-28T15:18:01;4.13;;;2.43;;
665;SDS011;315;48.738;9.126;2023-12-28T15:20:26;2.37;;;1.90;;
665;SDS011;315;48.738;9.126;2023-12-28T15:22:52;3.10;;;2.60;;
665;SDS011;315;48.738;9.126;2023-12-28T15:25:18;4.57;;;2.60;;
665;SDS011;315;48.738;9.126;2023-12-28T15:27:45;3.20;;;2.10;;
665;SDS011;315;48.738;9.126;2023-12-28T15:30:10;2.70;;;1.97;;
665;SDS011;315;48.738;9.126;2023-12-28T15:32:39;3.97;;;2.70;;
665;SDS011;315;48.738;9.126;2023-12-28T15:35:05;3.57;;;2.43;;
665;SDS011;315;48.738;9.126;2023-12-28T15:37:32;3.03;;;2.77;;
665;SDS011;315;48.738;9.126;2023-12-28T15:39:58;4.27;;;2.17;;
665;SDS011;315;48.738;9.126;2023-12-28T15:42:23;4.90;;;2.77;;
665;SDS011;315;48.738;9.126;2023-12-28T15:44:49;4.03;;;2.30;;
665;SDS011;315;48.738;9.126;2023-12-28T15:47:15;5.50;;;3.13;;